Annville, Pennsylvania
Current Conditions -  °F | °C
As of 1:58 PM on Saturday 25 Oct 2014 (Local Time) from KMUI Reporting Station
Clear Clear  
Wind Chill: 20°   Ceiling: Unl
Heat Index: 20°   Visibility: 10mi
Dew Point:   Wind: 9mph
Humidity: 41%   Direction: 270°W
Pressure: 29.78"   Gusts: 21mph
Location:  40.33°N, 76.51°W
Report Text: KMUI 251758Z AUTO 27008G18KT 240V300 10SM CLR 20/06 A2978 RMK AO2 SLP086 T01990063 10199 20072 57031 $
Loading
Personal Weather Stations






























Interactive Weather Map
Tropical Storm Tracking
New forecast layout! Learn more

10-Day Weather Forecast

Advertisements
Track Severe Weather on mobile